Time;durP1;ratioP1;P1;durP2;ratioP2;P2;SDS_P1;SDS_P2;PMS_P1;PMS_P2;Temp;Humidity;BMP_temperature;BMP_pressure;BME280_temperature;BME280_humidity;BME280_pressure;Samples;Min_cycle;Max_cycle;Signal;HPM_P1;HPM_P2
2021/05/12 00:00:17;;;;;;;57.00;2.40;;;11.80;99.90;;;;;;5071734;28;20482;-73
2021/05/12 00:02:43;;;;;;;57.37;2.70;;;11.80;99.90;;;;;;5071490;28;20823;-73
2021/05/12 00:05:11;;;;;;;56.83;2.30;;;11.80;99.90;;;;;;5071565;28;20963;-73
2021/05/12 00:07:39;;;;;;;57.27;2.60;;;11.80;99.90;;;;;;5071674;28;20960;-73
2021/05/12 00:10:08;;;;;;;57.47;2.60;;;11.80;99.90;;;;;;5071841;28;20526;-73
2021/05/12 00:12:34;;;;;;;57.50;2.70;;;11.80;99.90;;;;;;5071255;28;20534;-73
2021/05/12 00:15:01;;;;;;;57.20;2.73;;;11.80;99.90;;;;;;5071441;28;20543;-73
2021/05/12 00:17:28;;;;;;;58.30;2.80;;;11.80;99.90;;;;;;5071819;28;20538;-73
2021/05/12 00:19:56;;;;;;;57.30;2.50;;;11.80;99.90;;;;;;5071228;28;20447;-72
2021/05/12 00:22:38;;;;;;;57.07;2.33;;;11.80;99.90;;;;;;5071151;28;20884;-73
2021/05/12 00:25:08;;;;;;;56.97;2.30;;;11.80;99.90;;;;;;5071547;28;20447;-73
2021/05/12 00:27:35;;;;;;;57.17;2.20;;;11.80;99.90;;;;;;5071747;28;20476;-73
2021/05/12 00:30:01;;;;;;;56.83;2.20;;;11.80;99.90;;;;;;5071574;28;20447;-73
2021/05/12 00:32:28;;;;;;;57.40;2.97;;;11.80;99.90;;;;;;5070970;28;20467;-73
2021/05/12 00:34:54;;;;;;;56.97;2.30;;;11.70;99.90;;;;;;5071376;28;20522;-73
2021/05/12 00:37:20;;;;;;;56.87;2.33;;;11.70;99.90;;;;;;5071662;28;20538;-73
2021/05/12 00:39:47;;;;;;;57.13;2.60;;;11.70;99.90;;;;;;5071522;28;20492;-73
2021/05/12 00:42:14;;;;;;;57.10;2.60;;;11.70;99.90;;;;;;5070976;28;20557;-73
2021/05/12 00:44:40;;;;;;;57.23;2.60;;;11.70;99.90;;;;;;5071233;28;20451;-73
2021/05/12 00:47:06;;;;;;;57.37;2.90;;;11.70;99.90;;;;;;5071135;28;20529;-73
2021/05/12 00:49:34;;;;;;;56.87;2.40;;;11.70;99.90;;;;;;5071345;28;21022;-73
2021/05/12 00:52:00;;;;;;;57.13;2.50;;;11.70;99.90;;;;;;5071198;28;20566;-74
2021/05/12 00:54:27;;;;;;;56.97;2.40;;;11.70;99.90;;;;;;5071348;28;20565;-74
2021/05/12 00:56:53;;;;;;;57.17;2.40;;;11.60;99.90;;;;;;5071116;28;20921;-74
2021/05/12 00:59:29;;;;;;;57.30;2.50;;;11.60;99.90;;;;;;5071179;28;20533;-73
2021/05/12 01:01:56;;;;;;;57.20;2.50;;;11.50;99.90;;;;;;5071074;28;20499;-73
2021/05/12 01:04:22;;;;;;;57.13;2.40;;;11.50;99.90;;;;;;5071242;28;20525;-73
2021/05/12 01:06:49;;;;;;;58.47;3.13;;;11.50;99.90;;;;;;5071169;28;20534;-74
2021/05/12 01:09:15;;;;;;;58.00;2.90;;;11.40;99.90;;;;;;5071331;28;20451;-74
2021/05/12 01:11:42;;;;;;;57.23;2.47;;;11.40;99.90;;;;;;5071039;28;20510;-73
2021/05/12 01:14:08;;;;;;;57.60;2.80;;;11.40;99.90;;;;;;5070460;28;20542;-70
2021/05/12 01:16:35;;;;;;;57.40;2.60;;;11.40;99.90;;;;;;5071180;28;20578;-71
2021/05/12 01:29:09;;;;;;;57.30;2.30;;;11.20;99.90;;;;;;5070941;28;20441;-70
2021/05/12 01:31:38;;;;;;;58.33;3.47;;;11.20;99.90;;;;;;5071426;28;21015;-71
2021/05/12 01:34:06;;;;;;;57.13;2.20;;;11.10;99.90;;;;;;5074080;28;20447;-71
2021/05/12 01:36:34;;;;;;;57.60;2.60;;;11.10;99.90;;;;;;5074411;28;20482;-71
2021/05/12 01:39:00;;;;;;;57.30;2.33;;;11.00;99.90;;;;;;5074576;28;20534;-72
2021/05/12 01:41:28;;;;;;;57.27;2.50;;;11.00;99.90;;;;;;5074314;28;20505;-72
2021/05/12 01:43:55;;;;;;;57.30;2.50;;;11.00;99.90;;;;;;5074055;28;20447;-72
2021/05/12 01:46:22;;;;;;;57.17;2.50;;;11.00;99.90;;;;;;5074405;28;20581;-71
2021/05/12 01:48:49;;;;;;;57.07;2.30;;;10.90;99.90;;;;;;5074488;28;20519;-72
2021/05/12 01:51:17;;;;;;;57.07;2.30;;;10.90;99.90;;;;;;5074118;28;20470;-71
2021/05/12 01:53:44;;;;;;;57.07;2.43;;;10.90;99.90;;;;;;5073954;28;20450;-71
2021/05/12 01:56:12;;;;;;;57.50;2.60;;;10.90;99.90;;;;;;5074405;28;20581;-72
2021/05/12 01:58:39;;;;;;;57.27;2.57;;;10.90;99.90;;;;;;5074304;28;20548;-72
2021/05/12 02:01:05;;;;;;;57.20;2.43;;;10.90;99.90;;;;;;5074071;28;21053;-72
2021/05/12 02:03:33;;;;;;;57.50;2.70;;;10.80;99.90;;;;;;5073586;28;20538;-71
2021/05/12 02:05:59;;;;;;;57.37;2.70;;;10.80;99.90;;;;;;5074136;28;20535;-72
2021/05/12 02:08:28;;;;;;;57.40;2.60;;;10.80;99.90;;;;;;5073902;28;20971;-71
2021/05/12 02:10:56;;;;;;;59.27;2.70;;;10.70;99.90;;;;;;5073854;28;20471;-72
2021/05/12 02:13:25;;;;;;;57.07;2.60;;;10.70;99.90;;;;;;5073607;28;20538;-72
2021/05/12 02:15:52;;;;;;;59.50;3.10;;;10.70;99.90;;;;;;5073660;28;20582;-72
2021/05/12 02:18:18;;;;;;;57.57;2.40;;;10.70;99.90;;;;;;5073946;28;20538;-71
2021/05/12 02:20:46;;;;;;;57.60;3.00;;;10.70;99.90;;;;;;5073799;28;20474;-71
2021/05/12 02:23:14;;;;;;;57.37;2.53;;;10.70;99.90;;;;;;5073329;28;20491;-71
2021/05/12 02:25:42;;;;;;;58.50;3.30;;;10.70;99.90;;;;;;5073327;28;21042;-70
2021/05/12 02:28:09;;;;;;;57.20;2.40;;;10.70;99.90;;;;;;5073706;28;20947;-72
2021/05/12 02:30:36;;;;;;;57.70;2.90;;;10.70;99.90;;;;;;5073551;28;20489;-72
2021/05/12 02:33:04;;;;;;;57.37;2.77;;;10.70;99.90;;;;;;5073319;28;20447;-71
2021/05/12 02:35:30;;;;;;;57.37;2.37;;;10.60;99.90;;;;;;5073194;28;20727;-71
2021/05/12 02:37:58;;;;;;;57.40;2.53;;;10.60;99.90;;;;;;5073393;28;20458;-71
2021/05/12 02:40:25;;;;;;;57.23;2.33;;;10.60;99.90;;;;;;5073481;28;20931;-71
2021/05/12 02:42:53;;;;;;;57.27;2.40;;;10.60;99.90;;;;;;5072784;28;20550;-71
2021/05/12 02:45:20;;;;;;;57.33;2.43;;;10.60;99.90;;;;;;5073250;28;20535;-71
2021/05/12 02:47:57;;;;;;;57.17;2.50;;;10.60;99.90;;;;;;5073324;28;20956;-71
2021/05/12 02:50:24;;;;;;;57.37;2.47;;;10.50;99.90;;;;;;5073338;28;20454;-71
2021/05/12 02:52:51;;;;;;;57.37;2.60;;;10.50;99.90;;;;;;5073065;28;20538;-70
2021/05/12 02:55:19;;;;;;;57.63;3.13;;;10.50;99.90;;;;;;5072815;28;20451;-71
2021/05/12 02:57:46;;;;;;;58.47;5.03;;;10.50;99.90;;;;;;5073064;28;20864;-71
2021/05/12 03:00:15;;;;;;;57.57;2.67;;;10.50;99.90;;;;;;5072889;28;20486;-71
2021/05/12 03:02:41;;;;;;;57.17;2.30;;;10.50;99.90;;;;;;5072524;28;20447;-70
2021/05/12 03:05:09;;;;;;;58.37;2.70;;;10.50;99.90;;;;;;5072964;28;20909;-71
2021/05/12 03:07:35;;;;;;;57.47;2.60;;;10.40;99.90;;;;;;5072877;28;20447;-70
2021/05/12 03:10:02;;;;;;;57.40;2.73;;;10.50;99.90;;;;;;5072870;28;20906;-69
2021/05/12 03:12:29;;;;;;;57.13;2.50;;;10.40;99.90;;;;;;5072372;28;20475;-70
2021/05/12 03:14:56;;;;;;;57.30;2.50;;;10.50;99.90;;;;;;5072515;28;20926;-70
2021/05/12 03:17:22;;;;;;;57.37;2.73;;;10.50;99.90;;;;;;5072539;28;20535;-70
2021/05/12 03:19:48;;;;;;;57.37;2.90;;;10.40;99.90;;;;;;5072795;28;20485;-70
2021/05/12 03:22:15;;;;;;;57.50;2.73;;;10.40;99.90;;;;;;5072457;28;20547;-70
2021/05/12 03:24:41;;;;;;;59.30;2.80;;;10.50;99.90;;;;;;5072522;28;20530;-70
2021/05/12 03:27:08;;;;;;;57.10;2.60;;;10.50;99.90;;;;;;5072312;28;20470;-69
2021/05/12 03:29:35;;;;;;;57.50;2.80;;;10.50;99.90;;;;;;5072333;28;20526;-69
2021/05/12 03:32:01;;;;;;;57.23;2.67;;;10.40;99.90;;;;;;5071963;28;20507;-69
2021/05/12 03:34:28;;;;;;;57.47;2.70;;;10.50;99.90;;;;;;5072149;28;21093;-70
2021/05/12 03:36:54;;;;;;;57.37;2.93;;;10.50;99.90;;;;;;5072225;28;20914;-69
2021/05/12 03:39:20;;;;;;;57.17;3.00;;;10.40;99.90;;;;;;5072285;28;20461;-69
2021/05/12 03:41:47;;;;;;;58.30;3.10;;;10.50;99.90;;;;;;5072226;28;20556;-69
2021/05/12 03:44:13;;;;;;;59.07;3.13;;;10.50;99.90;;;;;;5071405;28;20478;-69
2021/05/12 03:46:40;;;;;;;57.43;2.60;;;10.50;99.90;;;;;;5072212;28;20485;-70
2021/05/12 03:49:07;;;;;;;57.37;2.67;;;10.50;99.90;;;;;;5072201;28;20455;-69
2021/05/12 03:51:33;;;;;;;57.37;2.80;;;10.50;99.90;;;;;;5072182;28;20558;-69
2021/05/12 03:53:59;;;;;;;57.50;2.60;;;10.50;99.90;;;;;;5071317;28;20487;-69
2021/05/12 03:56:26;;;;;;;58.43;3.53;;;10.50;99.90;;;;;;5071595;28;20562;-70
2021/05/12 03:58:52;;;;;;;58.10;2.83;;;10.50;99.90;;;;;;5071942;28;20483;-70
2021/05/12 04:01:18;;;;;;;57.30;2.70;;;10.50;99.90;;;;;;5072132;28;20499;-69
2021/05/12 04:03:46;;;;;;;57.90;2.90;;;10.50;99.90;;;;;;5071570;28;20483;-69
2021/05/12 04:06:12;;;;;;;58.70;4.20;;;10.50;99.90;;;;;;5071990;28;20471;-69
2021/05/12 04:08:38;;;;;;;57.50;2.80;;;10.50;99.90;;;;;;5071861;28;20522;-69
2021/05/12 04:11:05;;;;;;;57.87;2.90;;;10.50;99.90;;;;;;5071648;28;20490;-69
2021/05/12 04:13:31;;;;;;;57.63;3.13;;;10.50;99.90;;;;;;5071194;28;20542;-70
2021/05/12 04:15:58;;;;;;;58.90;3.03;;;10.50;99.90;;;;;;5071916;28;20487;-70
2021/05/12 04:18:26;;;;;;;57.17;2.50;;;10.50;99.90;;;;;;5071828;28;20530;-70
2021/05/12 04:20:54;;;;;;;57.80;3.33;;;10.50;99.90;;;;;;5071705;28;20477;-70
2021/05/12 04:23:20;;;;;;;57.03;2.27;;;10.60;99.90;;;;;;5071434;28;20530;-69
2021/05/12 04:25:46;;;;;;;59.63;4.50;;;10.60;99.90;;;;;;5071424;28;20531;-70
2021/05/12 04:28:13;;;;;;;58.47;3.00;;;10.60;99.90;;;;;;5071575;28;20534;-69
2021/05/12 04:30:39;;;;;;;58.70;3.90;;;10.60;99.90;;;;;;5071428;28;20560;-69
2021/05/12 04:33:06;;;;;;;57.47;3.00;;;10.60;99.90;;;;;;5071330;28;20535;-68
2021/05/12 04:35:32;;;;;;;57.27;2.47;;;10.60;99.90;;;;;;5071319;28;20927;-69
2021/05/12 04:37:59;;;;;;;58.17;2.90;;;10.60;99.90;;;;;;5071625;28;20521;-69
2021/05/12 04:40:26;;;;;;;58.00;3.20;;;10.60;99.90;;;;;;5071384;28;20559;-69
2021/05/12 04:42:52;;;;;;;57.90;3.37;;;10.60;99.90;;;;;;5070849;28;20542;-70
2021/05/12 04:45:19;;;;;;;57.13;2.30;;;10.60;99.90;;;;;;5071177;28;20443;-69
2021/05/12 04:47:54;;;;;;;57.23;2.60;;;10.60;99.90;;;;;;5071455;28;20538;-69
2021/05/12 04:50:23;;;;;;;57.40;2.73;;;10.60;99.90;;;;;;5071350;28;20990;-69
2021/05/12 04:52:50;;;;;;;57.97;3.00;;;10.60;99.90;;;;;;5071061;28;20447;-69
2021/05/12 04:55:17;;;;;;;57.20;2.67;;;10.60;99.90;;;;;;5070937;28;20546;-69
2021/05/12 04:57:44;;;;;;;60.17;3.60;;;10.60;99.90;;;;;;5071642;28;20540;-69
2021/05/12 05:00:13;;;;;;;58.00;4.00;;;10.60;99.90;;;;;;5071486;28;20533;-68
2021/05/12 05:02:40;;;;;;;57.90;2.90;;;10.60;99.90;;;;;;5071021;28;20951;-68
2021/05/12 05:05:09;;;;;;;57.40;3.00;;;10.60;99.90;;;;;;5071011;28;20443;-69
2021/05/12 05:07:35;;;;;;;58.10;2.80;;;10.60;99.90;;;;;;5075016;28;20823;-68
2021/05/12 05:10:02;;;;;;;58.20;3.10;;;10.60;99.90;;;;;;5075269;28;20490;-68
2021/05/12 05:12:30;;;;;;;58.40;3.03;;;10.60;99.90;;;;;;5074592;28;20851;-68
2021/05/12 05:14:57;;;;;;;57.40;2.50;;;10.50;99.90;;;;;;5074826;28;20490;-69
2021/05/12 05:17:26;;;;;;;57.50;2.70;;;10.60;99.90;;;;;;5074821;28;20581;-68
2021/05/12 05:19:53;;;;;;;57.57;3.00;;;10.60;99.90;;;;;;5074902;28;20885;-69
2021/05/12 05:22:21;;;;;;;57.20;2.30;;;10.50;99.90;;;;;;5074535;28;20503;-69
2021/05/12 05:24:48;;;;;;;57.30;2.63;;;10.50;99.90;;;;;;5074623;28;20450;-68
2021/05/12 05:27:14;;;;;;;57.53;2.70;;;10.50;99.90;;;;;;5074875;28;20471;-69
2021/05/12 05:29:41;;;;;;;57.47;2.73;;;10.50;99.90;;;;;;5074741;28;20443;-69
2021/05/12 05:32:08;;;;;;;58.77;3.90;;;10.50;99.90;;;;;;5074683;28;20935;-68
2021/05/12 05:34:34;;;;;;;57.40;2.40;;;10.60;99.90;;;;;;5074459;28;20530;-68
2021/05/12 05:37:01;;;;;;;57.47;2.60;;;10.50;99.90;;;;;;5074733;28;20580;-68
2021/05/12 05:39:35;;;;;;;58.17;3.00;;;10.50;99.90;;;;;;5074411;28;20453;-68
2021/05/12 05:42:01;;;;;;;58.10;3.37;;;10.50;99.90;;;;;;5074332;28;20552;-69
2021/05/12 05:44:28;;;;;;;57.70;2.90;;;10.50;99.90;;;;;;5074440;28;20451;-69
2021/05/12 05:46:56;;;;;;;59.87;3.10;;;10.50;99.90;;;;;;5074515;28;20450;-68
2021/05/12 05:49:22;;;;;;;57.40;2.60;;;10.50;99.90;;;;;;5074322;28;20451;-69
2021/05/12 05:51:49;;;;;;;57.47;3.50;;;10.50;99.90;;;;;;5074592;28;20561;-68
2021/05/12 05:54:15;;;;;;;57.37;2.47;;;10.40;99.90;;;;;;5074098;28;21021;-69
2021/05/12 05:56:41;;;;;;;57.43;2.53;;;10.40;99.90;;;;;;5074109;28;20475;-69
2021/05/12 05:59:08;;;;;;;57.43;2.50;;;10.40;99.90;;;;;;5074288;28;20929;-68
2021/05/12 06:01:34;;;;;;;57.67;2.60;;;10.50;99.90;;;;;;5074153;28;20467;-68
2021/05/12 06:04:02;;;;;;;58.07;2.50;;;10.50;99.90;;;;;;5073808;28;20458;-68
2021/05/12 06:06:28;;;;;;;57.70;3.10;;;10.40;99.90;;;;;;5074073;28;21009;-68
2021/05/12 06:08:54;;;;;;;58.37;4.17;;;10.40;99.90;;;;;;5074206;28;20903;-68
2021/05/12 06:11:21;;;;;;;57.50;2.50;;;10.50;99.90;;;;;;5073916;28;20957;-68
2021/05/12 06:13:48;;;;;;;57.33;2.70;;;10.50;99.90;;;;;;5073562;28;20526;-68
2021/05/12 06:16:15;;;;;;;58.47;3.27;;;10.50;99.90;;;;;;5073856;28;20582;-69
2021/05/12 06:18:42;;;;;;;57.27;2.57;;;10.50;99.90;;;;;;5073134;28;20494;-69
2021/05/12 06:21:09;;;;;;;57.10;2.47;;;10.50;99.90;;;;;;5073762;28;20546;-69
2021/05/12 06:23:35;;;;;;;57.57;2.60;;;10.50;99.90;;;;;;5073499;28;20534;-69
2021/05/12 06:26:01;;;;;;;57.80;2.83;;;10.60;99.90;;;;;;5073821;28;20451;-69
2021/05/12 06:28:28;;;;;;;57.87;3.47;;;10.60;99.90;;;;;;5073699;28;20443;-69
2021/05/12 06:30:54;;;;;;;57.50;2.70;;;10.60;99.90;;;;;;5073536;28;20546;-69
2021/05/12 06:33:22;;;;;;;57.90;2.83;;;10.60;99.90;;;;;;5073475;28;20482;-68
2021/05/12 06:35:50;;;;;;;57.90;2.80;;;10.60;99.90;;;;;;5073374;28;20519;-68
2021/05/12 06:38:17;;;;;;;57.23;2.30;;;10.60;99.90;;;;;;5073360;28;20479;-68
2021/05/12 06:40:43;;;;;;;57.40;2.40;;;10.60;99.90;;;;;;5073553;28;20561;-68
2021/05/12 06:43:10;;;;;;;57.00;2.47;;;10.70;97.40;;;;;;5073135;28;21007;-68
2021/05/12 06:45:36;;;;;;;57.37;2.43;;;10.60;94.80;;;;;;5072989;28;21025;-68
2021/05/12 06:48:02;;;;;;;57.60;3.50;;;10.60;95.10;;;;;;5073548;28;20451;-68
2021/05/12 06:50:29;;;;;;;57.63;2.80;;;10.70;94.40;;;;;;5073229;28;21022;-68
2021/05/12 06:52:56;;;;;;;57.70;2.70;;;10.70;93.50;;;;;;5073082;28;20534;-68
2021/05/12 06:55:24;;;;;;;57.67;2.90;;;10.70;92.70;;;;;;5072869;28;20538;-68
2021/05/12 06:57:50;;;;;;;58.63;3.37;;;10.80;93.40;;;;;;5072872;28;20572;-68
2021/05/12 07:00:19;;;;;;;57.20;2.90;;;10.80;93.40;;;;;;5073375;28;20864;-68
2021/05/12 07:02:46;;;;;;;57.37;2.83;;;10.90;93.00;;;;;;5072939;28;20493;-68
2021/05/12 07:05:15;;;;;;;57.73;3.00;;;10.90;93.00;;;;;;5072834;28;20963;-68
2021/05/12 07:07:41;;;;;;;57.30;2.60;;;11.00;92.90;;;;;;5073039;28;20455;-68
2021/05/12 07:10:09;;;;;;;57.27;2.67;;;11.00;92.10;;;;;;5072904;28;20578;-68
2021/05/12 07:12:36;;;;;;;57.30;2.80;;;11.00;92.30;;;;;;5072823;28;21040;-68
2021/05/12 07:15:03;;;;;;;57.20;2.50;;;11.00;92.10;;;;;;5072744;28;20883;-68
2021/05/12 07:17:30;;;;;;;57.30;2.33;;;11.00;91.80;;;;;;5072828;28;20578;-67
2021/05/12 07:19:56;;;;;;;57.60;2.60;;;11.00;90.50;;;;;;5072613;28;20508;-68
2021/05/12 07:22:23;;;;;;;58.73;3.13;;;11.00;87.80;;;;;;5072299;28;20553;-68
2021/05/12 07:24:49;;;;;;;57.57;2.80;;;11.00;87.30;;;;;;5072496;28;20482;-68
2021/05/12 07:27:16;;;;;;;57.27;2.63;;;11.00;84.80;;;;;;5072318;28;20982;-68
2021/05/12 07:29:44;;;;;;;57.03;2.40;;;11.00;81.50;;;;;;5071621;28;20588;-68
2021/05/12 07:32:10;;;;;;;57.40;2.70;;;11.00;81.00;;;;;;5071888;28;20498;-68
2021/05/12 07:34:36;;;;;;;57.03;2.20;;;11.00;79.50;;;;;;5072334;28;20462;-67
2021/05/12 07:37:03;;;;;;;57.37;2.70;;;11.00;75.10;;;;;;5072170;28;20577;-68
2021/05/12 07:39:31;;;;;;;57.40;2.97;;;10.90;71.30;;;;;;5071940;28;20443;-68
2021/05/12 07:41:59;;;;;;;57.40;2.77;;;10.90;71.00;;;;;;5072054;28;20470;-68
2021/05/12 07:44:26;;;;;;;57.70;3.60;;;11.00;72.60;;;;;;5072256;28;20494;-69
2021/05/12 07:46:53;;;;;;;57.17;2.70;;;11.00;71.00;;;;;;5072257;28;20471;-69
2021/05/12 07:49:20;;;;;;;57.23;2.60;;;11.00;70.40;;;;;;5072178;28;20530;-69
2021/05/12 07:51:46;;;;;;;57.30;2.50;;;11.00;70.50;;;;;;5072132;28;21064;-69
2021/05/12 07:54:13;;;;;;;57.90;3.03;;;11.10;69.80;;;;;;5071376;28;20542;-68
2021/05/12 07:56:39;;;;;;;57.50;2.50;;;11.10;67.20;;;;;;5071838;28;20570;-68
2021/05/12 07:59:06;;;;;;;57.20;2.47;;;11.10;66.40;;;;;;5085539;28;20533;-68
2021/05/12 08:01:37;;;;;;;57.30;2.60;;;11.10;54.20;;;;;;5071683;28;20542;-68
2021/05/12 08:04:05;;;;;;;57.17;2.70;;;11.10;51.90;;;;;;5070884;28;20516;-68
2021/05/12 08:06:31;;;;;;;57.37;2.47;;;11.10;50.10;;;;;;5070511;28;20830;-68
2021/05/12 08:08:58;;;;;;;57.40;2.57;;;11.00;49.40;;;;;;5071614;28;20479;-68
2021/05/12 08:11:24;;;;;;;58.70;3.20;;;11.00;52.10;;;;;;5069419;28;20521;-68
2021/05/12 08:13:51;;;;;;;56.87;2.20;;;11.00;53.80;;;;;;5086507;28;20537;-68
2021/05/12 08:16:17;;;;;;;57.00;2.40;;;11.00;50.50;;;;;;5091485;28;20568;-69
2021/05/12 08:18:44;;;;;;;57.30;2.50;;;10.90;45.70;;;;;;5091611;28;20496;-68
2021/05/12 08:21:11;;;;;;;58.07;2.57;;;10.90;47.60;;;;;;5091427;28;20688;-68
2021/05/12 08:23:37;;;;;;;59.30;3.03;;;11.00;54.70;;;;;;5090872;28;21010;-68
2021/05/12 08:26:04;;;;;;;57.20;2.13;;;11.10;52.50;;;;;;5091861;28;20855;-68
2021/05/12 08:28:30;;;;;;;57.50;2.50;;;11.00;47.30;;;;;;5091673;28;20599;-68
2021/05/12 08:30:57;;;;;;;57.10;2.43;;;11.00;47.70;;;;;;5091404;28;20545;-68
2021/05/12 08:33:24;;;;;;;57.60;2.63;;;11.00;44.20;;;;;;5091054;28;20442;-68
2021/05/12 08:35:52;;;;;;;57.60;2.70;;;11.00;39.20;;;;;;5091060;28;20450;-68
2021/05/12 08:38:24;;;;;;;57.23;2.47;;;11.10;39.20;;;;;;5091667;28;20537;-68
2021/05/12 08:40:53;;;;;;;57.20;2.47;;;11.10;43.50;;;;;;5092677;28;20506;-68
2021/05/12 08:43:19;;;;;;;58.67;2.80;;;11.20;39.40;;;;;;5095883;28;20457;-68
2021/05/12 08:45:47;;;;;;;57.23;2.60;;;11.20;39.60;;;;;;5095366;28;20442;-67
2021/05/12 08:48:15;;;;;;;59.10;4.20;;;11.30;37.20;;;;;;5095535;28;20910;-68
2021/05/12 08:50:42;;;;;;;57.37;2.67;;;11.40;36.70;;;;;;5095834;28;20556;-68
2021/05/12 08:53:08;;;;;;;57.20;2.63;;;11.40;40.50;;;;;;5095415;28;20446;-68
2021/05/12 08:55:37;;;;;;;57.20;2.70;;;11.40;42.00;;;;;;5094279;28;20449;-68
2021/05/12 08:58:03;;;;;;;57.30;2.53;;;11.50;43.30;;;;;;5092757;28;20486;-68
2021/05/12 09:00:30;;;;;;;57.10;2.50;;;11.50;44.10;;;;;;5095000;28;20494;-68
2021/05/12 09:02:59;;;;;;;57.30;2.47;;;11.60;44.00;;;;;;5094868;28;21009;-68
2021/05/12 09:05:25;;;;;;;57.23;2.40;;;11.70;42.70;;;;;;5094889;28;20533;-69
2021/05/12 09:07:52;;;;;;;57.17;2.60;;;11.70;34.20;;;;;;5095615;28;20539;-69
2021/05/12 09:10:18;;;;;;;57.60;2.60;;;11.60;33.30;;;;;;5095265;28;20934;-68
2021/05/12 09:12:47;;;;;;;57.67;2.93;;;11.70;32.60;;;;;;5094631;28;20458;-67
2021/05/12 09:15:17;;;;;;;57.37;2.87;;;11.60;29.10;;;;;;5094667;28;20450;-68
2021/05/12 09:17:45;;;;;;;57.50;2.67;;;11.60;28.30;;;;;;5094857;28;20510;-67
2021/05/12 09:20:29;;;;;;;58.10;2.47;;;11.50;28.80;;;;;;5094745;28;20484;-67
2021/05/12 09:23:08;;;;;;;58.73;3.13;;;11.50;24.90;;;;;;5094323;28;20484;-68
2021/05/12 09:25:36;;;;;;;57.50;3.13;;;11.40;21.30;;;;;;5094584;28;20456;-68
2021/05/12 09:28:11;;;;;;;57.63;2.77;;;11.40;22.30;;;;;;5084864;28;20542;-67
2021/05/12 09:30:38;;;;;;;57.27;2.50;;;11.40;25.50;;;;;;5085749;28;20477;-68
2021/05/12 09:33:05;;;;;;;57.70;2.50;;;11.40;28.90;;;;;;5094275;28;20545;-68
2021/05/12 09:35:32;;;;;;;57.47;2.60;;;11.60;20.20;;;;;;5094622;28;20530;-68
2021/05/12 09:37:58;;;;;;;57.90;2.73;;;11.50;10.90;;;;;;5093764;28;20484;-68
2021/05/12 09:40:26;;;;;;;57.47;2.50;;;11.50;11.90;;;;;;5094235;28;20481;-68
2021/05/12 09:43:02;;;;;;;57.13;2.60;;;11.50;14.10;;;;;;5094232;28;20493;-67
2021/05/12 09:45:33;;;;;;;57.17;2.30;;;11.40;12.20;;;;;;5094152;28;20454;-68
2021/05/12 09:48:01;;;;;;;57.07;2.23;;;11.40;10.90;;;;;;5094588;28;20515;-67
2021/05/12 09:50:30;;;;;;;57.70;3.43;;;11.40;12.10;;;;;;5094099;28;20470;-68
2021/05/12 09:52:58;;;;;;;57.97;3.20;;;11.40;19.00;;;;;;5092510;28;20450;-68
2021/05/12 09:55:34;;;;;;;58.73;2.90;;;11.30;18.10;;;;;;5093948;28;20560;-67
2021/05/12 09:58:03;;;;;;;57.50;2.60;;;11.40;15.60;;;;;;5090974;28;20496;-67
2021/05/12 10:00:31;;;;;;;57.97;3.30;;;11.40;9.70;;;;;;5093301;28;20478;-67
2021/05/12 10:02:58;;;;;;;58.17;2.70;;;11.40;13.10;;;;;;5092792;28;20533;-67
2021/05/12 10:05:25;;;;;;;58.00;3.20;;;11.40;12.30;;;;;;5093403;28;20996;-67
2021/05/12 10:07:52;;;;;;;57.40;2.73;;;11.50;15.50;;;;;;5093991;28;20465;-67
2021/05/12 10:10:39;;;;;;;58.17;3.00;;;11.50;19.50;;;;;;5093838;28;20478;-67
2021/05/12 10:13:05;;;;;;;57.67;2.93;;;11.60;24.10;;;;;;5093252;28;20529;-67
2021/05/12 10:15:32;;;;;;;58.07;3.13;;;11.70;15.80;;;;;;5093760;28;20525;-68
2021/05/12 10:17:59;;;;;;;57.20;2.70;;;11.80;16.50;;;;;;5093244;28;20489;-68
2021/05/12 10:20:26;;;;;;;59.07;4.57;;;11.90;15.20;;;;;;5094029;28;20588;-68
2021/05/12 10:22:54;;;;;;;57.70;3.23;;;12.00;23.40;;;;;;5093874;28;20485;-68
2021/05/12 10:25:22;;;;;;;57.47;2.87;;;12.10;29.80;;;;;;5078852;28;20451;-68
2021/05/12 10:27:49;;;;;;;57.37;2.50;;;12.30;33.00;;;;;;5088111;28;20529;-68
2021/05/12 10:30:16;;;;;;;59.47;3.10;;;12.50;27.20;;;;;;5093284;28;20533;-67
2021/05/12 10:32:49;;;;;;;57.60;2.70;;;12.60;14.70;;;;;;5093010;28;20481;-68
2021/05/12 10:35:16;;;;;;;57.27;2.70;;;12.80;12.60;;;;;;5093319;28;20458;-68
2021/05/12 10:37:43;;;;;;;58.10;3.03;;;12.90;1.00;;;;;;5093418;28;20523;-68
2021/05/12 10:40:18;;;;;;;57.40;2.60;;;13.00;1.00;;;;;;5093371;28;20478;-67
2021/05/12 10:43:06;;;;;;;59.30;2.63;;;13.00;1.00;;;;;;5093540;28;20477;-68
2021/05/12 10:45:55;;;;;;;57.80;3.10;;;13.00;1.00;;;;;;5093234;28;20558;-67
2021/05/12 10:48:30;;;;;;;58.07;3.30;;;12.90;1.00;;;;;;5093282;28;20533;-68
2021/05/12 10:50:57;;;;;;;57.47;2.90;;;12.90;1.00;;;;;;5093241;28;20920;-68
2021/05/12 10:53:25;;;;;;;57.80;2.80;;;12.90;1.00;;;;;;5092889;28;20442;-68
2021/05/12 10:56:02;;;;;;;57.27;2.87;;;12.90;1.00;;;;;;5082099;28;20821;-68
2021/05/12 10:58:30;;;;;;;57.20;2.60;;;12.90;1.00;;;;;;5072796;28;20868;-67
2021/05/12 11:00:58;;;;;;;57.13;2.57;;;13.10;1.00;;;;;;5073014;28;20563;-68
2021/05/12 11:03:25;;;;;;;57.37;2.40;;;13.10;1.00;;;;;;5072116;28;20535;-68
2021/05/12 11:06:01;;;;;;;57.37;2.37;;;13.10;1.00;;;;;;5072158;28;20550;-68
2021/05/12 11:08:27;;;;;;;57.27;2.40;;;13.10;1.00;;;;;;5072683;28;20487;-67
2021/05/12 11:10:59;;;;;;;57.30;2.70;;;13.20;1.00;;;;;;5072758;28;20515;-68
2021/05/12 11:13:27;;;;;;;57.70;2.67;;;13.10;1.00;;;;;;5072255;28;20527;-67
2021/05/12 11:15:55;;;;;;;57.20;2.40;;;13.10;1.00;;;;;;5072154;28;20451;-67
2021/05/12 11:18:51;;;;;;;57.70;2.90;;;13.00;1.00;;;;;;5072624;28;20534;-68
2021/05/12 11:21:28;;;;;;;57.40;2.77;;;13.00;1.00;;;;;;5059739;28;20553;-68
2021/05/12 11:24:13;;;;;;;57.33;2.57;;;13.00;1.00;;;;;;5071993;28;20447;-68
2021/05/12 11:26:54;;;;;;;57.30;2.70;;;13.10;1.00;;;;;;5073020;28;20446;-68
2021/05/12 11:32:17;;;;;;;57.40;2.50;;;13.10;1.00;;;;;;5029507;28;20465;-68
2021/05/12 11:34:43;;;;;;;56.97;2.27;;;13.10;1.00;;;;;;5077202;28;20446;-67
2021/05/12 11:37:14;;;;;;;57.80;3.63;;;13.20;1.00;;;;;;5092480;28;20565;-67
2021/05/12 11:39:41;;;;;;;57.27;2.67;;;13.30;1.00;;;;;;5092827;28;20450;-67
2021/05/12 11:42:21;;;;;;;57.13;2.43;;;13.30;1.00;;;;;;5091761;28;20994;-67
2021/05/12 11:44:47;;;;;;;57.40;2.80;;;13.30;1.00;;;;;;5092187;28;20451;-67
2021/05/12 11:47:27;;;;;;;57.50;2.87;;;13.30;1.00;;;;;;5092380;28;20438;-67
2021/05/12 11:49:53;;;;;;;57.27;2.73;;;13.30;1.00;;;;;;5092180;28;20449;-67
2021/05/12 11:52:28;;;;;;;57.47;2.60;;;13.40;1.00;;;;;;5091891;28;20514;-67
2021/05/12 11:54:55;;;;;;;59.97;3.40;;;13.50;1.00;;;;;;5091992;28;20524;-67
2021/05/12 11:57:21;;;;;;;57.10;2.50;;;13.60;1.00;;;;;;5090512;28;20486;-67
2021/05/12 11:59:47;;;;;;;57.37;2.70;;;13.80;1.00;;;;;;5073149;28;20986;-67
2021/05/12 12:02:14;;;;;;;58.07;3.33;;;14.00;1.00;;;;;;5091247;28;20574;-67
2021/05/12 12:04:50;;;;;;;57.50;2.70;;;14.10;1.00;;;;;;5091981;28;20442;-67
2021/05/12 12:07:16;;;;;;;57.60;2.67;;;14.30;1.00;;;;;;5091900;28;20543;-67
2021/05/12 12:09:44;;;;;;;57.40;2.47;;;14.30;1.00;;;;;;5091896;28;20450;-67
2021/05/12 12:12:10;;;;;;;57.50;2.83;;;14.40;1.00;;;;;;5091134;28;20511;-68
2021/05/12 12:14:38;;;;;;;57.70;3.53;;;14.50;1.00;;;;;;5091338;28;20452;-67
2021/05/12 12:17:09;;;;;;;57.17;2.40;;;14.60;1.00;;;;;;5091104;28;20578;-67
2021/05/12 12:19:36;;;;;;;58.03;2.80;;;14.60;1.00;;;;;;5092005;28;20453;-67
2021/05/12 12:22:03;;;;;;;57.57;3.40;;;14.70;1.00;;;;;;5091206;28;20472;-67
2021/05/12 12:24:30;;;;;;;60.43;2.73;;;14.80;1.00;;;;;;5091827;28;20455;-67
2021/05/12 12:26:58;;;;;;;57.50;2.73;;;14.90;1.00;;;;;;5091622;28;20445;-67
2021/05/12 12:29:26;;;;;;;57.37;2.70;;;15.00;1.00;;;;;;5087897;28;20457;-67
2021/05/12 12:31:55;;;;;;;57.27;2.53;;;15.10;1.00;;;;;;5090891;28;21030;-67
2021/05/12 12:34:23;;;;;;;57.40;2.40;;;15.30;1.00;;;;;;5091514;28;20448;-67
2021/05/12 12:37:01;;;;;;;57.97;2.70;;;15.40;1.00;;;;;;5091657;28;20554;-67
2021/05/12 12:39:56;;;;;;;57.83;2.80;;;15.40;1.00;;;;;;5091308;28;20459;-67
2021/05/12 12:42:26;;;;;;;57.33;2.90;;;15.40;1.00;;;;;;5055640;28;20481;-67
2021/05/12 12:44:53;;;;;;;57.53;2.70;;;15.40;1.00;;;;;;5091334;28;20444;-67
2021/05/12 12:47:21;;;;;;;57.60;2.80;;;15.40;1.00;;;;;;5092032;28;20464;-67
2021/05/12 12:49:52;;;;;;;57.47;2.33;;;15.30;1.00;;;;;;5091394;28;20951;-67
2021/05/12 12:52:22;;;;;;;57.40;2.67;;;15.20;1.00;;;;;;5090921;28;20465;-67
2021/05/12 12:57:39;;;;;;;57.50;2.60;;;15.20;1.00;;;;;;5091220;28;20901;-67